Orland, Maine
Current Conditions -  °F | °C
As of 1:53 PM on Saturday 25 Oct 2014 (Local Time) from KBGR Reporting Station
Scattered Clouds Scattered Clouds  
Wind Chill: 59°   Ceiling: Unl
Heat Index: 59°   Visibility: 10mi
Dew Point: 33°   Wind: 5mph
Humidity: 38%   Direction: 330°NNW
Pressure: 29.57"   Gusts: NA
Location:  44.57°N, 68.74°W
Report Text: KBGR 251753Z 33004KT 10SM FEW060 SCT130 SCT250 15/01 A2957 RMK AO2 SLP015 T01500006 10156 20067 56023
Loading
Personal Weather Stations






























Interactive Weather Map
Tropical Storm Tracking
New forecast layout! Learn more

10-Day Weather Forecast

Advertisements
Track Severe Weather on mobile